createdAt,value
2023-03-13T00:01:56.176Z,9.40
2023-03-13T00:04:27.272Z,9.30
2023-03-13T00:06:58.484Z,9.30
2023-03-13T00:09:29.963Z,9.40
2023-03-13T00:12:01.352Z,9.50
2023-03-13T00:14:32.725Z,9.60
2023-03-13T00:17:04.055Z,9.70
2023-03-13T00:19:35.444Z,9.90
2023-03-13T00:22:06.530Z,10.00
2023-03-13T00:24:37.971Z,10.00
2023-03-13T00:27:09.174Z,10.10
2023-03-13T00:29:41.297Z,10.10
2023-03-13T00:32:12.051Z,10.00
2023-03-13T00:34:42.792Z,10.00
2023-03-13T00:37:13.533Z,10.00
2023-03-13T00:40:03.304Z,9.90
2023-03-13T00:42:34.553Z,9.90
2023-03-13T00:45:05.822Z,9.90
2023-03-13T00:47:36.639Z,9.90
2023-03-13T00:50:09.548Z,9.90
2023-03-13T00:52:40.215Z,9.90
2023-03-13T00:55:12.801Z,9.90
2023-03-13T00:57:43.580Z,9.80
2023-03-13T01:00:17.367Z,9.80
2023-03-13T01:02:48.350Z,9.80
2023-03-13T01:05:19.273Z,10.00
2023-03-13T01:07:51.290Z,10.10
2023-03-13T01:10:22.149Z,10.10
2023-03-13T01:12:52.981Z,10.10
2023-03-13T01:15:24.546Z,10.20
2023-03-13T01:17:55.216Z,10.20
2023-03-13T01:20:26.985Z,10.20
2023-03-13T01:22:57.769Z,10.10
2023-03-13T01:25:28.648Z,10.10
2023-03-13T01:27:59.422Z,10.10
2023-03-13T01:30:31.041Z,10.20
2023-03-13T01:33:02.456Z,10.10
2023-03-13T01:35:36.365Z,10.00
2023-03-13T01:38:07.168Z,9.90
2023-03-13T01:40:43.522Z,9.90
2023-03-13T01:43:29.345Z,9.90
2023-03-13T01:46:05.725Z,10.00
2023-03-13T01:48:44.530Z,10.00
2023-03-13T01:51:35.146Z,10.20
2023-03-13T01:54:10.075Z,10.20
2023-03-13T01:56:44.569Z,10.20
2023-03-13T01:59:18.801Z,10.20
2023-03-13T02:01:50.768Z,10.10
2023-03-13T02:04:23.406Z,10.00
2023-03-13T02:06:57.387Z,9.90
2023-03-13T02:09:31.175Z,9.90
2023-03-13T02:12:05.998Z,9.90
2023-03-13T02:14:39.618Z,10.00
2023-03-13T02:17:11.292Z,10.10
2023-03-13T02:19:45.611Z,10.00
2023-03-13T02:22:20.805Z,10.00
2023-03-13T02:24:55.182Z,10.10
2023-03-13T02:27:26.434Z,10.20
2023-03-13T02:29:57.479Z,10.20
2023-03-13T02:32:29.733Z,10.00
2023-03-13T02:35:20.721Z,10.00
2023-03-13T02:37:54.888Z,10.00
2023-03-13T02:40:29.293Z,9.90
2023-03-13T02:43:02.614Z,9.80
2023-03-13T02:45:33.806Z,9.90
2023-03-13T02:48:04.951Z,9.90
2023-03-13T02:50:37.362Z,9.80
2023-03-13T02:53:09.879Z,9.80
2023-03-13T02:55:42.954Z,9.90
2023-03-13T02:58:14.189Z,9.90
2023-03-13T03:00:45.377Z,9.80
2023-03-13T03:03:16.629Z,9.70
2023-03-13T03:05:47.878Z,9.60
2023-03-13T03:08:19.085Z,9.50
2023-03-13T03:10:50.207Z,9.40
2023-03-13T03:13:21.293Z,9.50
2023-03-13T03:15:52.400Z,9.50
2023-03-13T03:18:23.647Z,9.40
2023-03-13T03:20:54.828Z,9.50
2023-03-13T03:23:26.109Z,9.50
2023-03-13T03:25:57.324Z,9.50
2023-03-13T03:28:28.316Z,9.40
2023-03-13T03:31:01.096Z,9.40
2023-03-13T03:33:32.446Z,9.40
2023-03-13T03:36:06.234Z,9.50
2023-03-13T03:38:38.640Z,9.60
2023-03-13T03:41:11.786Z,9.60
2023-03-13T03:43:43.115Z,9.70
2023-03-13T03:46:14.981Z,9.80
2023-03-13T03:48:46.336Z,9.90
2023-03-13T03:51:17.584Z,9.90
2023-03-13T03:53:48.875Z,10.00
2023-03-13T03:56:20.121Z,10.10
2023-03-13T03:58:51.360Z,9.90
2023-03-13T04:01:22.592Z,9.90
2023-03-13T04:03:54.064Z,9.90
2023-03-13T04:06:25.507Z,10.00
2023-03-13T04:08:56.581Z,10.00
2023-03-13T04:11:27.588Z,10.00
2023-03-13T04:13:58.510Z,10.00
2023-03-13T04:16:29.608Z,10.00
2023-03-13T04:19:00.432Z,10.00
2023-03-13T04:21:31.256Z,10.10
2023-03-13T04:24:02.266Z,10.10
2023-03-13T04:26:33.340Z,10.10
2023-03-13T04:29:05.957Z,10.10
2023-03-13T04:31:37.145Z,9.90
2023-03-13T04:34:08.301Z,9.80
2023-03-13T04:36:39.478Z,9.60
2023-03-13T04:39:10.543Z,9.40
2023-03-13T04:41:41.661Z,9.40
2023-03-13T04:44:12.678Z,9.40
2023-03-13T04:46:43.799Z,9.40
2023-03-13T04:49:15.166Z,9.30
2023-03-13T04:51:47.432Z,9.30
2023-03-13T04:54:18.405Z,9.30
2023-03-13T04:56:49.559Z,9.20
2023-03-13T04:59:20.458Z,9.20
2023-03-13T05:01:52.431Z,9.10
2023-03-13T05:04:23.550Z,9.00
2023-03-13T05:06:54.437Z,9.10
2023-03-13T05:09:25.486Z,9.20
2023-03-13T05:11:58.145Z,9.20
2023-03-13T05:14:29.208Z,9.00
2023-03-13T05:17:00.091Z,8.90
2023-03-13T05:19:30.974Z,8.80
2023-03-13T05:22:02.024Z,8.70
2023-03-13T05:24:33.026Z,8.70
2023-03-13T05:27:04.045Z,8.70
2023-03-13T05:29:35.208Z,8.50
2023-03-13T05:32:06.104Z,8.30
2023-03-13T05:34:37.061Z,8.20
2023-03-13T05:37:08.411Z,8.10
2023-03-13T05:39:39.714Z,8.20
2023-03-13T05:42:10.737Z,8.20
2023-03-13T05:44:41.872Z,8.30
2023-03-13T05:47:12.988Z,8.40
2023-03-13T05:49:43.836Z,8.30
2023-03-13T05:52:15.315Z,8.20
2023-03-13T05:54:46.262Z,8.20
2023-03-13T05:57:16.988Z,8.30
2023-03-13T05:59:48.209Z,8.40
2023-03-13T06:02:20.820Z,8.50
2023-03-13T06:04:51.852Z,8.60
2023-03-13T06:07:23.007Z,8.70
2023-03-13T06:09:54.093Z,8.40
2023-03-13T06:12:25.085Z,8.20
2023-03-13T06:14:56.121Z,8.10
2023-03-13T06:17:27.221Z,8.10
2023-03-13T06:19:58.053Z,8.20
2023-03-13T06:22:29.140Z,8.40
2023-03-13T06:25:00.162Z,8.60
2023-03-13T06:27:31.226Z,8.50
2023-03-13T06:30:02.198Z,8.40
2023-03-13T06:32:33.423Z,8.40
2023-03-13T06:35:05.226Z,8.30
2023-03-13T06:37:36.222Z,8.20
2023-03-13T06:40:09.259Z,8.10
2023-03-13T06:42:39.777Z,8.20
2023-03-13T06:45:13.152Z,8.30
2023-03-13T06:47:44.327Z,8.40
2023-03-13T06:50:15.354Z,8.50
2023-03-13T06:52:47.743Z,8.60
2023-03-13T06:55:18.874Z,8.60
2023-03-13T06:57:53.653Z,8.60
2023-03-13T07:00:27.080Z,8.60
2023-03-13T07:02:58.026Z,8.60
2023-03-13T07:05:29.180Z,8.80
2023-03-13T07:08:00.333Z,8.90
2023-03-13T07:10:31.942Z,9.00
2023-03-13T07:13:03.086Z,9.10
2023-03-13T07:15:34.177Z,9.20
2023-03-13T07:18:05.205Z,9.30
2023-03-13T07:20:36.245Z,9.40
2023-03-13T07:23:07.332Z,9.90
2023-03-13T07:25:38.474Z,10.30
2023-03-13T07:28:09.379Z,10.80
2023-03-13T07:30:42.461Z,10.90
2023-03-13T07:33:13.626Z,11.00
2023-03-13T07:35:50.073Z,11.00
2023-03-13T07:38:21.327Z,11.00
2023-03-13T07:40:53.688Z,11.20
2023-03-13T07:43:25.426Z,11.40
2023-03-13T07:45:58.388Z,11.70
2023-03-13T07:48:31.894Z,11.90
2023-03-13T07:51:02.890Z,11.90
2023-03-13T07:53:34.103Z,12.00
2023-03-13T07:56:06.640Z,12.10
2023-03-13T07:58:40.239Z,12.20
2023-03-13T08:01:16.926Z,12.10
2023-03-13T08:03:49.448Z,12.20
2023-03-13T08:06:23.366Z,12.10
2023-03-13T08:08:54.925Z,12.00
2023-03-13T08:11:28.541Z,12.10
2023-03-13T08:13:59.912Z,12.10
2023-03-13T08:16:34.402Z,12.20
2023-03-13T08:19:06.814Z,12.20
2023-03-13T08:21:39.435Z,12.30
2023-03-13T08:24:13.190Z,12.40
2023-03-13T08:26:44.987Z,12.40
2023-03-13T08:29:16.501Z,12.40
2023-03-13T08:31:49.120Z,12.50
2023-03-13T08:34:20.782Z,12.40
2023-03-13T08:36:53.084Z,12.50
2023-03-13T08:39:24.345Z,12.60
2023-03-13T08:41:55.033Z,12.70
2023-03-13T08:44:25.575Z,12.80
2023-03-13T08:46:57.174Z,12.80
2023-03-13T08:49:27.757Z,12.80
2023-03-13T08:51:58.251Z,12.80
2023-03-13T08:54:28.806Z,12.80
2023-03-13T08:57:00.061Z,12.80
2023-03-13T08:59:31.045Z,12.90
2023-03-13T09:02:03.394Z,12.90
2023-03-13T09:04:34.067Z,13.00
2023-03-13T09:07:04.670Z,13.10
2023-03-13T09:09:35.164Z,13.20
2023-03-13T09:12:06.820Z,13.30
2023-03-13T09:14:37.463Z,13.40
2023-03-13T09:17:09.090Z,13.40
2023-03-13T09:19:47.857Z,13.60
2023-03-13T09:22:12.127Z,13.70
2023-03-13T09:24:43.354Z,13.70
2023-03-13T09:27:13.883Z,13.80
2023-03-13T09:29:44.618Z,13.90
2023-03-13T09:32:15.135Z,14.10
2023-03-13T09:34:45.635Z,14.10
2023-03-13T09:37:16.225Z,14.00
2023-03-13T09:39:46.767Z,13.90
2023-03-13T09:42:20.151Z,14.00
2023-03-13T09:44:55.066Z,14.20
2023-03-13T09:47:29.252Z,14.20
2023-03-13T09:50:03.061Z,14.30
2023-03-13T09:52:54.383Z,14.40
2023-03-13T09:55:28.133Z,14.40
2023-03-13T09:58:01.294Z,14.60
2023-03-13T10:00:35.806Z,14.80
2023-03-13T10:03:09.517Z,15.20
2023-03-13T10:05:42.303Z,15.40
2023-03-13T10:08:16.553Z,15.40
2023-03-13T10:10:51.285Z,15.20
2023-03-13T10:13:26.062Z,15.40
2023-03-13T10:15:59.713Z,16.00
2023-03-13T10:18:30.575Z,16.20
2023-03-13T10:21:05.199Z,16.30
2023-03-13T10:23:39.973Z,16.40
2023-03-13T10:26:18.060Z,16.60
2023-03-13T10:28:49.409Z,16.50
2023-03-13T10:31:24.629Z,16.60
2023-03-13T10:33:55.352Z,16.60
2023-03-13T10:36:25.850Z,16.90
2023-03-13T10:38:57.125Z,17.00
2023-03-13T10:41:31.316Z,17.00
2023-03-13T10:44:05.071Z,17.50
2023-03-13T10:46:37.511Z,17.80
2023-03-13T10:49:14.378Z,17.80
2023-03-13T10:51:49.534Z,18.00
2023-03-13T10:54:24.584Z,18.30
2023-03-13T10:57:10.482Z,18.10
2023-03-13T10:59:45.519Z,18.10
2023-03-13T11:02:29.284Z,18.10
2023-03-13T11:05:00.128Z,18.00
2023-03-13T11:07:34.285Z,17.80
2023-03-13T11:10:10.609Z,17.90
2023-03-13T11:12:46.682Z,17.90
2023-03-13T11:15:20.257Z,18.00
2023-03-13T11:17:54.038Z,18.00
2023-03-13T11:20:31.945Z,18.10
2023-03-13T11:23:18.903Z,18.40
2023-03-13T11:25:53.008Z,18.80
2023-03-13T11:28:36.932Z,18.80
2023-03-13T11:31:13.204Z,19.00
2023-03-13T11:33:51.175Z,18.70
2023-03-13T11:36:26.218Z,18.40
2023-03-13T11:39:00.519Z,18.30
2023-03-13T11:41:42.246Z,18.90
2023-03-13T11:44:23.996Z,19.20
2023-03-13T11:47:12.758Z,19.40
2023-03-13T11:49:56.792Z,19.60
2023-03-13T11:52:41.681Z,19.40
2023-03-13T11:58:51.714Z,20.40
2023-03-13T12:01:24.600Z,20.40
2023-03-13T12:04:01.047Z,20.60
2023-03-13T12:06:35.583Z,20.90
2023-03-13T12:09:10.395Z,21.00
2023-03-13T12:11:44.965Z,21.10
2023-03-13T12:14:18.848Z,20.90
2023-03-13T12:16:53.146Z,21.30
2023-03-13T12:19:27.579Z,21.50
2023-03-13T12:22:01.507Z,21.90
2023-03-13T12:24:36.228Z,21.70
2023-03-13T12:27:12.285Z,21.90
2023-03-13T12:29:47.522Z,21.90
2023-03-13T12:32:21.846Z,21.90
2023-03-13T12:34:59.614Z,22.10
2023-03-13T12:37:34.885Z,22.20
2023-03-13T12:40:12.075Z,21.90
2023-03-13T12:42:49.831Z,22.10
2023-03-13T12:45:24.504Z,22.20
2023-03-13T12:48:09.051Z,22.00
2023-03-13T12:50:54.534Z,22.30
2023-03-13T12:53:34.906Z,22.90
2023-03-13T12:56:17.584Z,23.10
2023-03-13T12:58:52.423Z,22.70
2023-03-13T13:01:31.445Z,22.70
2023-03-13T13:04:04.920Z,22.80
2023-03-13T13:06:56.270Z,22.60
2023-03-13T13:09:29.990Z,22.60
2023-03-13T13:12:04.440Z,22.90
2023-03-13T13:15:05.063Z,22.90
2023-03-13T13:18:01.832Z,23.00
2023-03-13T13:20:52.948Z,23.10
2023-03-13T13:23:39.488Z,23.70
2023-03-13T13:26:52.595Z,23.70
2023-03-13T13:29:57.987Z,23.90
2023-03-13T13:32:44.157Z,23.80
2023-03-13T13:35:35.854Z,23.90
2023-03-13T13:41:38.929Z,23.20
2023-03-13T13:44:28.917Z,23.10
2023-03-13T13:47:02.333Z,23.30
2023-03-13T13:49:54.839Z,23.40
2023-03-13T13:52:43.842Z,23.90
2023-03-13T13:55:49.006Z,23.90
2023-03-13T13:58:24.647Z,24.00
2023-03-13T14:00:59.403Z,23.80
2023-03-13T14:03:33.041Z,23.80
2023-03-13T14:06:06.833Z,23.40
2023-03-13T14:08:40.096Z,23.30
2023-03-13T14:11:19.129Z,23.20
2023-03-13T14:14:10.497Z,22.60
2023-03-13T14:16:43.143Z,22.70
2023-03-13T14:19:26.021Z,22.70
2023-03-13T14:22:02.883Z,22.80
2023-03-13T14:24:33.646Z,22.60
2023-03-13T14:27:06.441Z,22.80
2023-03-13T14:29:37.905Z,22.40
2023-03-13T14:32:09.731Z,22.30
2023-03-13T14:34:40.545Z,22.30
2023-03-13T14:37:31.594Z,22.70
2023-03-13T14:40:09.892Z,22.70
2023-03-13T14:42:47.262Z,22.70
2023-03-13T14:45:22.019Z,22.60
2023-03-13T14:47:54.618Z,22.30
2023-03-13T14:50:27.163Z,22.20
2023-03-13T14:53:01.252Z,22.40
2023-03-13T14:55:35.179Z,22.40
2023-03-13T14:58:08.691Z,22.00
2023-03-13T15:00:43.245Z,21.80
2023-03-13T15:03:34.070Z,22.00
2023-03-13T15:06:19.210Z,21.60
2023-03-13T15:08:52.263Z,21.50
2023-03-13T15:11:29.958Z,21.60
2023-03-13T15:14:01.137Z,21.90
2023-03-13T15:16:32.197Z,21.30
2023-03-13T15:19:03.028Z,21.40
2023-03-13T15:21:36.128Z,21.30
2023-03-13T15:24:14.095Z,21.20
2023-03-13T15:26:45.731Z,21.40
2023-03-13T15:29:18.650Z,21.80
2023-03-13T15:31:50.635Z,22.10
2023-03-13T15:34:23.453Z,22.20
2023-03-13T15:36:54.138Z,22.20
2023-03-13T15:39:29.264Z,22.00
2023-03-13T15:41:59.021Z,21.90
2023-03-13T15:44:29.839Z,21.90
2023-03-13T15:47:00.860Z,21.60
2023-03-13T15:49:32.133Z,21.50
2023-03-13T15:52:03.327Z,21.90
2023-03-13T15:54:34.092Z,21.90
2023-03-13T15:57:04.981Z,21.80
2023-03-13T15:59:37.219Z,21.80
2023-03-13T16:02:16.374Z,21.50
2023-03-13T16:04:48.119Z,21.20
2023-03-13T16:07:20.865Z,20.90
2023-03-13T16:12:30.572Z,20.40
2023-03-13T16:15:01.568Z,19.90
2023-03-13T16:20:17.206Z,19.60
2023-03-13T16:22:48.720Z,19.50
2023-03-13T16:25:19.730Z,19.40
2023-03-13T16:27:50.739Z,19.30
2023-03-13T16:30:24.984Z,19.30
2023-03-13T16:32:56.916Z,19.20
2023-03-13T16:35:30.510Z,19.10
2023-03-13T16:38:01.674Z,19.30
2023-03-13T16:40:35.062Z,19.10
2023-03-13T16:43:06.184Z,18.90
2023-03-13T16:45:36.972Z,18.80
2023-03-13T16:48:08.491Z,18.60
2023-03-13T16:50:40.503Z,18.50
2023-03-13T16:53:11.326Z,18.40
2023-03-13T16:55:42.297Z,18.30
2023-03-13T16:58:14.236Z,18.10
2023-03-13T17:00:59.308Z,18.10
2023-03-13T17:03:19.529Z,17.90
2023-03-13T17:05:50.801Z,17.90
2023-03-13T17:08:21.864Z,17.70
2023-03-13T17:10:52.826Z,17.50
2023-03-13T17:13:24.226Z,17.30
2023-03-13T17:15:55.724Z,17.20
2023-03-13T17:18:26.784Z,17.10
2023-03-13T17:20:57.657Z,17.00
2023-03-13T17:23:28.741Z,16.80
2023-03-13T17:26:00.533Z,16.70
2023-03-13T17:28:32.385Z,16.70
2023-03-13T17:31:03.271Z,16.60
2023-03-13T17:33:34.061Z,16.50
2023-03-13T17:38:41.771Z,16.40
2023-03-13T17:41:14.540Z,16.30
2023-03-13T17:43:45.919Z,16.20
2023-03-13T17:46:20.133Z,16.10
2023-03-13T17:48:52.985Z,16.00
2023-03-13T17:51:26.179Z,15.90
2023-03-13T17:53:58.970Z,15.80
2023-03-13T17:56:32.303Z,15.80
2023-03-13T17:59:04.499Z,15.80
2023-03-13T18:01:37.030Z,15.80
2023-03-13T18:04:08.138Z,15.70
2023-03-13T18:06:43.438Z,15.70
2023-03-13T18:09:18.179Z,15.50
2023-03-13T18:11:49.799Z,15.60
2023-03-13T18:14:21.683Z,15.50
2023-03-13T18:16:54.241Z,15.50
2023-03-13T18:19:27.196Z,15.50
2023-03-13T18:21:58.841Z,15.60
2023-03-13T18:24:30.333Z,15.50
2023-03-13T18:27:01.701Z,15.40
2023-03-13T18:29:33.232Z,15.40
2023-03-13T18:32:04.494Z,15.40
2023-03-13T18:34:36.006Z,15.30
2023-03-13T18:37:13.029Z,15.30
2023-03-13T18:39:44.210Z,15.20
2023-03-13T18:42:15.315Z,15.20
2023-03-13T18:44:46.176Z,15.20
2023-03-13T18:47:18.756Z,15.10
2023-03-13T18:49:51.202Z,15.10
2023-03-13T18:52:22.036Z,15.10
2023-03-13T18:54:53.087Z,15.20
2023-03-13T18:57:24.344Z,15.30
2023-03-13T18:59:55.460Z,15.20
2023-03-13T19:02:26.256Z,15.10
2023-03-13T19:04:57.164Z,15.00
2023-03-13T19:07:30.424Z,15.10
2023-03-13T19:10:01.881Z,15.00
2023-03-13T19:12:32.926Z,14.90
2023-03-13T19:15:03.767Z,15.00
2023-03-13T19:17:35.231Z,14.80
2023-03-13T19:20:08.224Z,14.70
2023-03-13T19:22:39.200Z,14.90
2023-03-13T19:25:12.504Z,14.80
2023-03-13T19:27:43.672Z,14.70
2023-03-13T19:32:58.305Z,14.70
2023-03-13T19:35:31.364Z,14.70
2023-03-13T19:38:02.433Z,14.50
2023-03-13T19:40:34.751Z,14.50
2023-03-13T19:43:06.278Z,14.40
2023-03-13T19:45:37.762Z,14.30
2023-03-13T19:48:10.527Z,14.20
2023-03-13T19:50:42.433Z,14.30
2023-03-13T19:53:13.786Z,14.20
2023-03-13T19:55:46.594Z,14.30
2023-03-13T19:58:18.394Z,14.40
2023-03-13T20:00:50.306Z,14.40
2023-03-13T20:03:21.484Z,14.40
2023-03-13T20:05:53.018Z,14.50
2023-03-13T20:08:24.023Z,14.50
2023-03-13T20:10:54.996Z,14.50
2023-03-13T20:13:25.929Z,14.60
2023-03-13T20:15:56.786Z,14.80
2023-03-13T20:18:28.147Z,14.90
2023-03-13T20:20:59.605Z,14.90
2023-03-13T20:23:31.005Z,15.00
2023-03-13T20:26:08.049Z,15.10
2023-03-13T20:28:40.022Z,15.20
2023-03-13T20:31:11.969Z,15.10
2023-03-13T20:33:43.423Z,15.20
2023-03-13T20:36:16.558Z,15.30
2023-03-13T20:38:47.925Z,15.30
2023-03-13T20:41:20.599Z,15.30
2023-03-13T20:43:52.504Z,15.30
2023-03-13T20:46:24.356Z,15.40
2023-03-13T20:48:58.484Z,15.40
2023-03-13T20:51:29.926Z,15.40
2023-03-13T20:54:00.989Z,15.40
2023-03-13T20:56:31.894Z,15.30
2023-03-13T20:59:02.939Z,15.10
2023-03-13T21:01:33.854Z,14.70
2023-03-13T21:04:05.106Z,14.40
2023-03-13T21:06:36.008Z,14.40
2023-03-13T21:09:17.095Z,14.20
2023-03-13T21:11:39.532Z,14.10
2023-03-13T21:14:10.497Z,13.90
2023-03-13T21:16:41.565Z,13.70
2023-03-13T21:19:12.749Z,13.60
2023-03-13T21:21:43.691Z,13.60
2023-03-13T21:24:15.191Z,13.50
2023-03-13T21:26:46.220Z,13.40
2023-03-13T21:29:17.305Z,13.40
2023-03-13T21:31:48.660Z,13.30
2023-03-13T21:34:19.691Z,13.20
2023-03-13T21:36:50.690Z,13.20
2023-03-13T21:39:22.954Z,13.20
2023-03-13T21:41:53.854Z,13.10
2023-03-13T21:44:26.393Z,13.00
2023-03-13T21:46:57.288Z,12.80
2023-03-13T21:49:28.199Z,12.70
2023-03-13T21:51:59.203Z,12.50
2023-03-13T21:54:30.124Z,12.40
2023-03-13T21:57:01.093Z,12.20
2023-03-13T21:59:32.146Z,12.20
2023-03-13T22:02:03.020Z,12.10
2023-03-13T22:04:34.288Z,12.00
2023-03-13T22:07:05.288Z,11.80
2023-03-13T22:09:36.387Z,11.70
2023-03-13T22:12:07.805Z,11.60
2023-03-13T22:14:39.430Z,11.60
2023-03-13T22:17:11.799Z,11.60
2023-03-13T22:19:42.599Z,11.60
2023-03-13T22:22:13.909Z,11.50
2023-03-13T22:24:45.256Z,11.50
2023-03-13T22:27:17.667Z,11.50
2023-03-13T22:29:48.951Z,11.50
2023-03-13T22:32:20.209Z,11.40
2023-03-13T22:34:51.596Z,11.40
2023-03-13T22:37:24.257Z,11.40
2023-03-13T22:39:55.124Z,11.30
2023-03-13T22:42:27.066Z,11.40
2023-03-13T22:44:58.358Z,11.40
2023-03-13T22:47:29.563Z,11.40
2023-03-13T22:50:00.731Z,11.30
2023-03-13T22:52:33.410Z,11.30
2023-03-13T22:55:04.843Z,11.30
2023-03-13T22:57:36.182Z,11.20
2023-03-13T23:00:09.773Z,11.20
2023-03-13T23:02:40.703Z,11.10
2023-03-13T23:05:12.296Z,11.10
2023-03-13T23:07:43.431Z,11.00
2023-03-13T23:10:15.027Z,11.00
2023-03-13T23:12:46.234Z,11.00
2023-03-13T23:15:17.242Z,11.00
2023-03-13T23:17:48.221Z,10.90
2023-03-13T23:20:19.818Z,10.90
2023-03-13T23:23:09.884Z,10.90
2023-03-13T23:25:41.923Z,10.80
2023-03-13T23:28:13.292Z,10.70
2023-03-13T23:30:44.542Z,10.60
2023-03-13T23:33:15.440Z,10.60
2023-03-13T23:35:46.833Z,10.60
2023-03-13T23:38:19.649Z,10.50
2023-03-13T23:40:50.621Z,10.60
2023-03-13T23:43:21.625Z,10.50
2023-03-13T23:45:52.694Z,10.50
2023-03-13T23:48:23.701Z,10.50
2023-03-13T23:50:54.722Z,10.40
2023-03-13T23:53:25.817Z,10.50
2023-03-13T23:56:02.707Z,10.50
2023-03-13T23:58:33.861Z,10.60
